Time;durP1;ratioP1;P1;durP2;ratioP2;P2;SDS_P1;SDS_P2;PMS_P1;PMS_P2;Temp;Humidity;BMP_temperature;BMP_pressure;BME280_temperature;BME280_humidity;BME280_pressure;Samples;Min_cycle;Max_cycle;Signal;HPM_P1;HPM_P2
2021/04/29 00:01:24;;;;;;;25.65;13.05;;;14.50;78.80;;;;;;5055976;28;20021;-73
2021/04/29 00:03:50;;;;;;;20.23;13.05;;;14.40;79.90;;;;;;5064140;28;20025;-74
2021/04/29 00:06:15;;;;;;;17.55;12.13;;;14.20;79.70;;;;;;5067033;28;20028;-73
2021/04/29 00:08:41;;;;;;;21.10;13.18;;;14.20;79.80;;;;;;5059886;28;20106;-73
2021/04/29 00:11:08;;;;;;;17.17;12.70;;;14.00;80.90;;;;;;5062279;28;20033;-73
2021/04/29 00:13:34;;;;;;;19.90;13.45;;;14.00;81.60;;;;;;5073282;28;20092;-73
2021/04/29 00:16:00;;;;;;;22.63;14.32;;;13.90;81.70;;;;;;5070706;28;20032;-73
2021/04/29 00:18:26;;;;;;;23.50;14.27;;;13.90;81.80;;;;;;5059606;28;20024;-73
2021/04/29 00:20:55;;;;;;;22.85;13.95;;;13.90;81.30;;;;;;5053778;28;20518;-74
2021/04/29 00:23:28;;;;;;;19.27;14.25;;;13.80;81.60;;;;;;5067752;28;20028;-73
2021/04/29 00:25:54;;;;;;;20.95;14.05;;;13.90;80.60;;;;;;5065064;28;20112;-73
2021/04/29 00:28:20;;;;;;;20.33;13.55;;;13.90;81.80;;;;;;5059330;28;20076;-72
2021/04/29 00:30:46;;;;;;;17.77;13.18;;;13.70;81.60;;;;;;5065254;28;20036;-72
2021/04/29 00:33:12;;;;;;;22.60;14.65;;;13.30;82.40;;;;;;5055647;28;20385;-74
2021/04/29 00:35:38;;;;;;;24.30;14.68;;;13.30;82.70;;;;;;5066883;28;20025;-74
2021/04/29 00:38:04;;;;;;;23.50;14.88;;;13.30;83.20;;;;;;5067404;28;20124;-74
2021/04/29 00:40:30;;;;;;;23.38;15.45;;;13.30;82.50;;;;;;5047470;28;20044;-73
2021/04/29 00:42:55;;;;;;;21.30;14.25;;;13.30;81.70;;;;;;5047332;28;20077;-73
2021/04/29 00:45:21;;;;;;;22.27;13.38;;;13.30;82.50;;;;;;5070647;28;20025;-74
2021/04/29 00:47:51;;;;;;;23.00;12.95;;;13.30;83.70;;;;;;5071420;28;20480;-74
2021/04/29 00:50:20;;;;;;;19.48;13.23;;;13.20;83.50;;;;;;5061201;28;20186;-74
2021/04/29 00:52:45;;;;;;;23.42;13.70;;;13.20;83.00;;;;;;5081744;28;21232;-71
2021/04/29 00:55:11;;;;;;;19.20;13.82;;;13.30;82.30;;;;;;5070994;28;20040;-72
2021/04/29 00:57:37;;;;;;;19.92;13.10;;;13.30;83.00;;;;;;5074017;28;20465;-73
2021/04/29 01:00:05;;;;;;;21.40;14.18;;;13.20;83.80;;;;;;5072455;28;20476;-72
2021/04/29 01:02:31;;;;;;;19.75;14.25;;;13.30;84.60;;;;;;5059653;28;20032;-72
2021/04/29 01:05:04;;;;;;;19.80;13.52;;;13.20;84.70;;;;;;5058830;28;20028;-72
2021/04/29 01:07:38;;;;;;;22.50;13.82;;;13.10;83.70;;;;;;5060192;28;20576;-72
2021/04/29 01:10:36;;;;;;;19.95;14.60;;;13.20;83.20;;;;;;5063443;28;20114;-72
2021/04/29 01:13:07;;;;;;;19.25;13.80;;;13.30;84.10;;;;;;5071222;28;20400;-73
2021/04/29 01:15:38;;;;;;;21.38;13.77;;;13.30;84.40;;;;;;5068266;28;20066;-73
2021/04/29 01:18:04;;;;;;;20.10;14.30;;;13.20;83.90;;;;;;5063164;28;20087;-73
2021/04/29 01:20:57;;;;;;;19.63;14.48;;;13.30;83.60;;;;;;5066911;28;20137;-72
2021/04/29 01:23:37;;;;;;;21.63;14.85;;;13.30;84.00;;;;;;5057327;28;20025;-73
2021/04/29 01:26:18;;;;;;;24.42;13.88;;;13.40;84.40;;;;;;5068234;28;20386;-74
2021/04/29 01:28:46;;;;;;;24.38;15.80;;;13.30;84.90;;;;;;5058233;28;20028;-72
2021/04/29 01:31:12;;;;;;;25.05;14.20;;;13.20;85.50;;;;;;5065343;28;20032;-74
2021/04/29 01:33:39;;;;;;;27.17;14.63;;;13.20;85.50;;;;;;5063006;28;20477;-73
2021/04/29 01:36:07;;;;;;;18.98;13.23;;;13.20;85.50;;;;;;5059634;28;20017;-73
2021/04/29 01:38:33;;;;;;;23.05;15.35;;;13.30;84.30;;;;;;5074816;28;20035;-73
2021/04/29 01:40:59;;;;;;;18.63;13.88;;;13.20;84.10;;;;;;5063328;28;20044;-73
2021/04/29 01:43:26;;;;;;;20.63;13.40;;;13.10;84.60;;;;;;5063391;28;20031;-71
2021/04/29 01:45:52;;;;;;;18.85;14.48;;;13.10;84.50;;;;;;5064664;28;20025;-73
2021/04/29 01:48:18;;;;;;;19.33;13.95;;;13.00;84.40;;;;;;5071448;28;20346;-75
2021/04/29 01:50:45;;;;;;;19.00;13.07;;;13.10;84.60;;;;;;5059451;28;20064;-73
2021/04/29 01:53:11;;;;;;;21.55;13.82;;;13.10;84.90;;;;;;5067081;28;20031;-71
2021/04/29 01:55:37;;;;;;;19.70;13.93;;;13.10;83.90;;;;;;5068007;28;20025;-71
2021/04/29 01:58:04;;;;;;;22.33;13.73;;;13.10;83.70;;;;;;5062127;28;20029;-71
2021/04/29 02:00:30;;;;;;;21.63;13.05;;;13.10;84.10;;;;;;5058926;28;20033;-71
2021/04/29 02:02:59;;;;;;;22.15;13.52;;;13.10;84.40;;;;;;5063134;28;20036;-71
2021/04/29 02:05:25;;;;;;;20.75;12.00;;;13.10;84.00;;;;;;5067327;28;20345;-71
2021/04/29 02:07:51;;;;;;;18.00;12.32;;;13.10;84.20;;;;;;5061169;28;20041;-71
2021/04/29 02:10:17;;;;;;;17.88;12.75;;;13.10;84.40;;;;;;5050042;28;20071;-71
2021/04/29 02:12:50;;;;;;;17.33;11.32;;;13.10;84.00;;;;;;5059746;28;20501;-71
2021/04/29 02:15:16;;;;;;;20.48;14.15;;;12.90;86.10;;;;;;5067357;28;20032;-71
2021/04/29 02:17:57;;;;;;;18.65;13.25;;;12.80;86.40;;;;;;5058680;28;20098;-71
2021/04/29 02:20:24;;;;;;;21.45;14.48;;;12.70;87.60;;;;;;5062818;28;20377;-71
2021/04/29 02:22:52;;;;;;;18.95;12.90;;;12.80;86.50;;;;;;5073040;28;20448;-71
2021/04/29 02:25:22;;;;;;;24.40;13.18;;;12.80;86.40;;;;;;5069770;28;20024;-71
2021/04/29 02:27:48;;;;;;;20.10;12.68;;;12.70;86.10;;;;;;5059440;28;20066;-71
2021/04/29 02:30:17;;;;;;;19.73;13.55;;;12.50;86.90;;;;;;5063024;28;20020;-71
2021/04/29 02:32:43;;;;;;;19.25;12.43;;;12.50;86.80;;;;;;5067063;28;20528;-71
2021/04/29 02:35:11;;;;;;;19.13;12.77;;;12.60;86.00;;;;;;5063241;28;20104;-71
2021/04/29 02:37:38;;;;;;;20.60;13.15;;;12.60;85.70;;;;;;5071367;28;20027;-72
2021/04/29 02:40:07;;;;;;;16.85;13.13;;;12.60;85.40;;;;;;5059919;28;20044;-72
2021/04/29 02:42:34;;;;;;;19.60;12.20;;;12.60;85.90;;;;;;5063861;28;20057;-71
2021/04/29 02:45:00;;;;;;;21.60;12.75;;;12.60;86.60;;;;;;5059181;28;20032;-72
2021/04/29 02:47:26;;;;;;;16.50;12.65;;;12.60;86.00;;;;;;5062625;28;20025;-71
2021/04/29 02:49:52;;;;;;;20.33;12.80;;;12.60;85.20;;;;;;5064355;28;20040;-74
2021/04/29 02:52:18;;;;;;;17.85;11.43;;;12.60;84.70;;;;;;5059666;28;20032;-74
2021/04/29 02:54:44;;;;;;;17.60;12.13;;;12.70;84.50;;;;;;5058612;28;20028;-73
2021/04/29 02:57:18;;;;;;;20.58;13.25;;;12.60;85.20;;;;;;5066142;28;20055;-73
2021/04/29 02:59:44;;;;;;;19.73;13.98;;;12.60;85.40;;;;;;5069145;28;20058;-74
2021/04/29 03:02:10;;;;;;;20.05;14.07;;;12.50;86.00;;;;;;5065383;28;20540;-74
2021/04/29 03:04:35;;;;;;;16.75;13.07;;;12.60;84.90;;;;;;5058041;28;20236;-73
2021/04/29 03:07:01;;;;;;;17.88;12.38;;;12.50;85.40;;;;;;5056772;28;20029;-74
2021/04/29 03:09:27;;;;;;;19.95;13.20;;;12.40;85.40;;;;;;5067345;28;20363;-73
2021/04/29 03:11:53;;;;;;;23.13;12.70;;;12.40;85.30;;;;;;5065981;28;20029;-73
2021/04/29 03:14:18;;;;;;;15.93;13.55;;;12.40;86.30;;;;;;5064677;28;20028;-74
2021/04/29 03:16:44;;;;;;;16.60;12.63;;;12.30;87.90;;;;;;5055559;28;20028;-72
2021/04/29 03:19:09;;;;;;;17.35;12.38;;;12.30;87.00;;;;;;5061060;28;20127;-74
2021/04/29 03:21:35;;;;;;;18.52;11.93;;;12.20;87.30;;;;;;5062887;28;20057;-74
2021/04/29 03:24:02;;;;;;;18.75;14.40;;;12.10;87.80;;;;;;5055703;28;20040;-74
2021/04/29 03:26:28;;;;;;;21.08;13.68;;;12.00;87.90;;;;;;5067562;28;20032;-74
2021/04/29 03:28:53;;;;;;;21.30;12.98;;;12.10;87.20;;;;;;5067322;28;20037;-74
2021/04/29 03:31:19;;;;;;;16.58;13.00;;;12.10;87.30;;;;;;5055695;28;20017;-73
2021/04/29 03:33:44;;;;;;;18.20;13.50;;;12.10;87.90;;;;;;5071716;28;20389;-73
2021/04/29 03:36:10;;;;;;;20.45;12.65;;;12.10;89.20;;;;;;5069880;28;20020;-73
2021/04/29 03:38:36;;;;;;;18.02;12.93;;;12.00;89.90;;;;;;5061877;28;20033;-74
2021/04/29 03:41:01;;;;;;;22.23;12.48;;;12.00;89.70;;;;;;5062035;28;20090;-75
2021/04/29 03:43:27;;;;;;;17.48;12.93;;;12.00;89.00;;;;;;5057563;28;20016;-72
2021/04/29 03:45:53;;;;;;;21.13;12.90;;;12.00;88.10;;;;;;5072081;28;20392;-74
2021/04/29 03:48:18;;;;;;;20.27;11.95;;;12.00;88.30;;;;;;5066717;28;20043;-71
2021/04/29 03:50:44;;;;;;;19.48;13.07;;;12.00;89.10;;;;;;5058597;28;20032;-71
2021/04/29 03:53:10;;;;;;;20.50;12.23;;;12.00;88.80;;;;;;5061676;28;20024;-71
2021/04/29 03:55:35;;;;;;;18.13;12.82;;;11.90;89.40;;;;;;5075510;28;20043;-71
2021/04/29 03:58:01;;;;;;;16.00;11.98;;;11.90;89.30;;;;;;5058712;28;20361;-71
2021/04/29 04:00:26;;;;;;;19.67;12.68;;;12.00;89.90;;;;;;5061186;28;20107;-71
2021/04/29 04:02:52;;;;;;;18.98;13.73;;;11.90;90.10;;;;;;5066649;28;20029;-71
2021/04/29 04:05:18;;;;;;;18.08;13.70;;;11.90;90.00;;;;;;5069353;28;20032;-71
2021/04/29 04:07:43;;;;;;;19.33;14.35;;;11.90;90.10;;;;;;5067616;28;20036;-72
2021/04/29 04:10:10;;;;;;;23.20;13.82;;;11.80;90.30;;;;;;5075106;28;20499;-71
2021/04/29 04:12:36;;;;;;;19.15;14.10;;;11.70;90.30;;;;;;5068189;28;20366;-71
2021/04/29 04:15:03;;;;;;;18.60;13.70;;;11.80;90.20;;;;;;5061256;28;20052;-74
2021/04/29 04:17:28;;;;;;;23.67;13.45;;;11.80;90.50;;;;;;5068783;28;20009;-74
2021/04/29 04:19:54;;;;;;;22.38;14.73;;;11.80;90.40;;;;;;5064508;28;20041;-74
2021/04/29 04:22:20;;;;;;;21.85;12.73;;;11.70;90.80;;;;;;5072069;28;20016;-73
2021/04/29 04:24:45;;;;;;;19.60;13.50;;;11.70;90.70;;;;;;5065848;28;20485;-71
2021/04/29 04:27:11;;;;;;;26.15;16.08;;;11.70;90.60;;;;;;5065930;28;20025;-71
2021/04/29 04:29:36;;;;;;;21.20;13.85;;;11.70;90.90;;;;;;5064553;28;20025;-71
2021/04/29 04:32:03;;;;;;;21.10;13.35;;;11.70;90.70;;;;;;5065639;28;20478;-71
2021/04/29 04:34:29;;;;;;;22.92;12.93;;;11.70;91.20;;;;;;5065206;28;20036;-70
2021/04/29 04:36:55;;;;;;;23.67;12.57;;;11.70;91.30;;;;;;5071134;28;20021;-70
2021/04/29 04:39:21;;;;;;;19.77;13.57;;;11.70;90.10;;;;;;5068849;28;20461;-71
2021/04/29 04:41:46;;;;;;;19.80;13.30;;;11.70;90.20;;;;;;5057237;28;20060;-71
2021/04/29 04:44:12;;;;;;;23.17;15.38;;;11.70;91.00;;;;;;5068003;28;20078;-71
2021/04/29 04:46:37;;;;;;;25.05;14.10;;;11.70;90.60;;;;;;5053157;28;20795;-70
2021/04/29 04:49:03;;;;;;;20.10;13.65;;;11.70;91.10;;;;;;5066933;28;20528;-73
2021/04/29 04:51:29;;;;;;;25.48;15.20;;;11.70;90.90;;;;;;5065675;28;20404;-74
2021/04/29 04:53:54;;;;;;;22.73;14.75;;;11.70;91.20;;;;;;5070811;28;20063;-74
2021/04/29 04:56:20;;;;;;;22.92;14.68;;;11.70;91.50;;;;;;5065213;28;20094;-73
2021/04/29 04:58:45;;;;;;;30.67;16.23;;;11.70;91.50;;;;;;5058421;28;20370;-74
2021/04/29 05:01:11;;;;;;;22.90;16.02;;;11.60;91.60;;;;;;5062651;28;20074;-74
2021/04/29 05:03:37;;;;;;;24.98;15.02;;;11.70;91.70;;;;;;5065649;28;20028;-74
2021/04/29 05:06:03;;;;;;;23.20;16.48;;;11.70;92.20;;;;;;5064811;28;20031;-73
2021/04/29 05:08:28;;;;;;;30.70;16.88;;;11.70;91.60;;;;;;5059326;28;20374;-74
2021/04/29 05:10:54;;;;;;;29.98;17.02;;;11.70;91.60;;;;;;5056262;28;20027;-74
2021/04/29 05:13:22;;;;;;;27.23;17.42;;;11.80;92.50;;;;;;5060566;28;20060;-73
2021/04/29 05:15:47;;;;;;;28.40;17.60;;;11.80;92.70;;;;;;5057620;28;20032;-71
2021/04/29 05:18:13;;;;;;;27.85;16.77;;;11.80;93.30;;;;;;5061229;28;20021;-72
2021/04/29 05:20:39;;;;;;;25.05;17.30;;;11.70;93.10;;;;;;5062510;28;20033;-70
2021/04/29 05:23:04;;;;;;;28.75;18.13;;;11.60;93.10;;;;;;5074377;28;20414;-70
2021/04/29 05:25:30;;;;;;;27.98;17.92;;;11.70;93.30;;;;;;5070486;28;20040;-70
2021/04/29 05:28:01;;;;;;;27.55;18.73;;;11.50;92.80;;;;;;5076635;28;20328;-71
2021/04/29 05:30:27;;;;;;;27.63;18.90;;;11.40;94.90;;;;;;5066430;28;20025;-71
2021/04/29 05:32:52;;;;;;;29.45;19.25;;;11.30;94.80;;;;;;5068959;28;20027;-72
2021/04/29 05:35:18;;;;;;;31.48;20.02;;;11.40;95.30;;;;;;5070136;28;20531;-71
2021/04/29 05:37:44;;;;;;;29.92;21.73;;;11.60;95.90;;;;;;5072855;28;20428;-70
2021/04/29 05:40:11;;;;;;;32.15;22.08;;;11.60;96.60;;;;;;5055617;28;20052;-71
2021/04/29 05:42:37;;;;;;;31.92;21.30;;;11.60;96.60;;;;;;5061410;28;20017;-70
2021/04/29 05:45:03;;;;;;;31.50;21.52;;;11.50;97.00;;;;;;5062310;28;20032;-71
2021/04/29 05:47:29;;;;;;;33.65;22.42;;;11.60;97.30;;;;;;5066614;28;20024;-71
2021/04/29 05:49:55;;;;;;;29.25;21.88;;;11.60;97.80;;;;;;5068954;28;20044;-71
2021/04/29 05:52:20;;;;;;;32.28;20.25;;;11.50;96.40;;;;;;5068961;28;20016;-71
2021/04/29 05:54:46;;;;;;;30.25;21.40;;;11.60;97.20;;;;;;5059513;28;20032;-71
2021/04/29 05:57:12;;;;;;;30.05;21.92;;;11.60;98.40;;;;;;5063502;28;20020;-71
2021/04/29 05:59:37;;;;;;;31.17;21.80;;;11.60;98.40;;;;;;5064126;28;20700;-71
2021/04/29 06:02:03;;;;;;;32.58;21.20;;;11.60;99.10;;;;;;5063593;28;20032;-71
2021/04/29 06:04:29;;;;;;;29.60;21.50;;;11.70;99.00;;;;;;5066647;28;20025;-71
2021/04/29 06:06:55;;;;;;;31.90;21.45;;;11.80;99.20;;;;;;5066183;28;20025;-71
2021/04/29 06:09:21;;;;;;;32.88;21.42;;;11.80;99.30;;;;;;5058825;28;20388;-72
2021/04/29 06:11:46;;;;;;;32.45;22.65;;;11.80;99.50;;;;;;5054846;28;20040;-71
2021/04/29 06:14:12;;;;;;;32.58;22.45;;;11.80;99.20;;;;;;5061634;28;20024;-71
2021/04/29 06:16:41;;;;;;;37.22;22.15;;;11.90;98.70;;;;;;5070793;28;20027;-71
2021/04/29 06:19:08;;;;;;;32.40;22.90;;;11.90;99.50;;;;;;5064165;28;20021;-71
2021/04/29 06:21:34;;;;;;;35.58;22.90;;;11.80;99.50;;;;;;5045818;28;20047;-71
2021/04/29 06:24:00;;;;;;;32.20;23.25;;;11.70;99.90;;;;;;5060097;28;20013;-71
2021/04/29 06:26:26;;;;;;;32.90;23.17;;;11.60;99.90;;;;;;5062660;28;20106;-71
2021/04/29 06:28:52;;;;;;;32.67;22.77;;;11.70;99.90;;;;;;5080022;28;20036;-71
2021/04/29 06:31:18;;;;;;;34.40;24.98;;;11.70;99.90;;;;;;5042802;28;20025;-71
2021/04/29 06:33:43;;;;;;;35.28;23.92;;;11.70;99.80;;;;;;5063730;28;20033;-71
2021/04/29 06:36:09;;;;;;;39.50;26.48;;;11.50;99.90;;;;;;5060617;28;20382;-71
2021/04/29 06:38:36;;;;;;;40.40;29.23;;;11.70;99.90;;;;;;5065931;28;20041;-71
2021/04/29 06:41:02;;;;;;;36.88;26.67;;;11.90;99.90;;;;;;5062180;28;20389;-71
2021/04/29 06:43:28;;;;;;;39.88;27.33;;;12.00;99.90;;;;;;5047931;28;20013;-71
2021/04/29 06:45:54;;;;;;;40.15;30.35;;;11.80;99.90;;;;;;5069473;28;20078;-73
2021/04/29 06:48:19;;;;;;;40.70;27.27;;;11.90;99.90;;;;;;5052548;28;20029;-73
2021/04/29 06:50:45;;;;;;;52.83;35.03;;;11.80;99.90;;;;;;5057569;28;20508;-70
2021/04/29 06:53:11;;;;;;;46.40;32.58;;;11.80;99.90;;;;;;5064913;28;20099;-70
2021/04/29 06:55:36;;;;;;;51.35;34.92;;;11.70;99.80;;;;;;5059661;28;20021;-70
2021/04/29 06:58:02;;;;;;;46.95;34.65;;;11.70;99.90;;;;;;5059892;28;20467;-70
2021/04/29 07:00:28;;;;;;;44.10;30.02;;;11.90;99.90;;;;;;5066171;28;20116;-70
2021/04/29 07:02:56;;;;;;;46.47;32.10;;;12.00;99.90;;;;;;5061669;28;20390;-70
2021/04/29 07:05:22;;;;;;;44.40;32.13;;;12.00;99.90;;;;;;5061519;28;20024;-70
2021/04/29 07:07:52;;;;;;;58.83;33.67;;;12.30;99.90;;;;;;5062239;28;20048;-71
2021/04/29 07:10:18;;;;;;;43.78;30.95;;;12.40;99.90;;;;;;5057846;28;20020;-71
2021/04/29 07:12:44;;;;;;;42.63;31.50;;;12.40;99.90;;;;;;5060946;28;20105;-71
2021/04/29 07:15:10;;;;;;;47.95;34.35;;;12.50;99.90;;;;;;5061121;28;20448;-73
2021/04/29 07:17:36;;;;;;;49.90;33.10;;;12.40;99.90;;;;;;5072933;28;20031;-70
2021/04/29 07:20:03;;;;;;;50.08;32.45;;;12.50;99.90;;;;;;5065558;28;20040;-70
2021/04/29 07:22:29;;;;;;;40.95;29.50;;;12.50;99.90;;;;;;5065489;28;20416;-72
2021/04/29 07:24:54;;;;;;;39.65;28.73;;;12.70;99.90;;;;;;5068948;28;20127;-72
2021/04/29 07:27:20;;;;;;;49.88;32.47;;;12.70;99.90;;;;;;5065581;28;20020;-73
2021/04/29 07:29:46;;;;;;;45.83;34.28;;;12.70;99.40;;;;;;5050485;28;20558;-72
2021/04/29 07:32:11;;;;;;;42.08;29.70;;;12.70;99.00;;;;;;5046694;28;20519;-73
2021/04/29 07:34:37;;;;;;;42.40;27.98;;;12.70;99.60;;;;;;5070395;28;20037;-72
2021/04/29 07:37:04;;;;;;;45.65;28.48;;;12.70;99.60;;;;;;5062294;28;20378;-70
2021/04/29 07:39:30;;;;;;;42.00;28.30;;;12.70;99.90;;;;;;5063446;28;20094;-71
2021/04/29 07:41:56;;;;;;;43.63;26.75;;;12.80;99.90;;;;;;5065447;28;20044;-70
2021/04/29 07:44:21;;;;;;;42.53;29.33;;;12.80;99.90;;;;;;5053266;28;20121;-70
2021/04/29 07:46:47;;;;;;;47.65;28.92;;;12.80;99.90;;;;;;5071975;28;20036;-71
2021/04/29 07:49:13;;;;;;;47.50;30.55;;;12.70;99.90;;;;;;5066000;28;20025;-70
2021/04/29 07:51:39;;;;;;;45.45;30.67;;;12.80;99.90;;;;;;5062112;28;20049;-71
2021/04/29 07:54:06;;;;;;;41.17;29.60;;;12.90;99.90;;;;;;5061315;28;20038;-70
2021/04/29 07:56:32;;;;;;;44.65;31.63;;;13.00;99.90;;;;;;5073720;28;20044;-70
2021/04/29 07:58:58;;;;;;;44.13;31.60;;;13.00;99.90;;;;;;5071049;28;20036;-70
2021/04/29 08:01:23;;;;;;;47.75;31.75;;;13.10;99.90;;;;;;5062477;28;20696;-70
2021/04/29 08:03:49;;;;;;;50.83;33.10;;;13.00;99.90;;;;;;5069510;28;20030;-70
2021/04/29 08:06:15;;;;;;;52.63;34.65;;;13.00;99.90;;;;;;5053200;28;20040;-70
2021/04/29 08:08:41;;;;;;;53.25;35.67;;;12.90;99.90;;;;;;5066027;28;20472;-70
2021/04/29 08:11:08;;;;;;;62.47;39.38;;;12.90;99.90;;;;;;5058694;28;20045;-70
2021/04/29 08:13:33;;;;;;;55.60;36.42;;;12.90;99.90;;;;;;5071491;28;20051;-72
2021/04/29 08:15:59;;;;;;;59.00;38.88;;;13.10;99.90;;;;;;5057276;28;20409;-71
2021/04/29 08:18:25;;;;;;;52.42;38.10;;;13.10;99.90;;;;;;5068699;28;20013;-72
2021/04/29 08:20:52;;;;;;;65.55;41.83;;;13.20;99.90;;;;;;5077579;28;20052;-71
2021/04/29 08:23:18;;;;;;;61.75;39.63;;;13.10;99.90;;;;;;5069416;28;20567;-72
2021/04/29 08:25:43;;;;;;;53.92;37.38;;;13.10;99.90;;;;;;5069429;28;20048;-72
2021/04/29 08:28:09;;;;;;;54.85;38.67;;;13.10;99.90;;;;;;5075039;28;20504;-71
2021/04/29 08:30:35;;;;;;;54.63;38.05;;;13.00;99.90;;;;;;5069620;28;20025;-70
2021/04/29 08:33:04;;;;;;;54.40;38.50;;;12.90;99.90;;;;;;5061695;28;20025;-70
2021/04/29 08:35:30;;;;;;;58.75;40.75;;;12.80;99.90;;;;;;5063440;28;20356;-71
2021/04/29 08:37:56;;;;;;;52.25;36.13;;;12.80;99.90;;;;;;5071371;28;20089;-72
2021/04/29 08:40:24;;;;;;;51.25;35.03;;;12.70;99.90;;;;;;5063068;28;20036;-71
2021/04/29 08:42:50;;;;;;;54.05;39.13;;;12.80;99.90;;;;;;5070868;28;20482;-72
2021/04/29 08:45:17;;;;;;;54.65;34.28;;;12.80;99.90;;;;;;5067085;28;20028;-72
2021/04/29 08:47:49;;;;;;;42.05;32.05;;;13.10;99.90;;;;;;5068597;28;20039;-72
2021/04/29 08:50:15;;;;;;;48.15;29.08;;;13.20;99.90;;;;;;5057336;28;20626;-72
2021/04/29 08:52:40;;;;;;;39.55;29.83;;;13.00;99.90;;;;;;5073173;28;20025;-73
2021/04/29 08:55:07;;;;;;;43.22;30.13;;;12.90;99.90;;;;;;5074140;28;20024;-72
2021/04/29 08:57:33;;;;;;;46.10;30.10;;;12.90;99.90;;;;;;5053282;28;20540;-70
2021/04/29 08:59:58;;;;;;;36.60;25.02;;;12.90;99.90;;;;;;5072399;28;20162;-71
2021/04/29 09:02:35;;;;;;;33.33;22.92;;;12.70;99.90;;;;;;5069162;28;20119;-72
2021/04/29 09:05:17;;;;;;;32.53;23.55;;;12.50;99.90;;;;;;5069250;28;20017;-72
2021/04/29 09:07:58;;;;;;;25.00;17.50;;;12.60;99.90;;;;;;5069029;28;20047;-70
2021/04/29 09:10:27;;;;;;;25.20;18.98;;;12.60;99.90;;;;;;5070328;28;20036;-70
2021/04/29 09:12:53;;;;;;;20.45;16.60;;;12.60;99.90;;;;;;5061682;28;20028;-72
2021/04/29 09:15:23;;;;;;;20.58;16.08;;;12.60;99.90;;;;;;5068068;28;20423;-71
2021/04/29 09:18:11;;;;;;;23.80;20.23;;;12.70;99.90;;;;;;5075108;28;20024;-72
2021/04/29 09:20:48;;;;;;;24.33;17.20;;;12.80;99.90;;;;;;5069319;28;20572;-72
2021/04/29 09:23:18;;;;;;;18.00;13.82;;;12.70;99.90;;;;;;5065121;28;20071;-72
2021/04/29 09:25:55;;;;;;;19.58;15.57;;;12.60;99.90;;;;;;5065549;28;20036;-72
2021/04/29 09:28:32;;;;;;;22.38;16.83;;;12.50;99.90;;;;;;5063606;28;20028;-71
2021/04/29 09:31:06;;;;;;;20.40;14.90;;;12.60;99.90;;;;;;5068285;28;20021;-70
2021/04/29 09:33:37;;;;;;;20.88;15.52;;;12.60;99.90;;;;;;5064573;28;20550;-71
2021/04/29 09:36:04;;;;;;;22.88;15.77;;;12.50;99.90;;;;;;5066407;28;20508;-71
2021/04/29 09:38:35;;;;;;;21.88;15.77;;;12.30;99.90;;;;;;5062988;28;20040;-71
2021/04/29 09:41:02;;;;;;;17.65;14.23;;;12.20;99.90;;;;;;5063673;28;20087;-72
2021/04/29 09:43:27;;;;;;;15.75;13.85;;;12.10;99.90;;;;;;5058038;28;20028;-72
2021/04/29 09:45:58;;;;;;;17.65;15.75;;;12.20;99.90;;;;;;5059114;28;20500;-70
2021/04/29 09:48:33;;;;;;;16.50;14.23;;;12.20;99.90;;;;;;5053760;28;20020;-71
2021/04/29 09:50:59;;;;;;;15.13;13.60;;;12.10;99.90;;;;;;5066671;28;20430;-70
2021/04/29 09:53:24;;;;;;;16.08;13.68;;;12.20;99.90;;;;;;5062856;28;20048;-70
2021/04/29 09:55:50;;;;;;;18.73;14.07;;;12.00;99.90;;;;;;5072681;28;20032;-70
2021/04/29 09:58:23;;;;;;;14.73;12.20;;;12.20;99.90;;;;;;5073987;28;20469;-73
2021/04/29 10:00:51;;;;;;;15.48;13.45;;;12.40;99.90;;;;;;5068277;28;20059;-71
2021/04/29 10:03:18;;;;;;;17.10;13.55;;;12.20;99.90;;;;;;5062778;28;20025;-72
2021/04/29 10:05:45;;;;;;;14.73;11.93;;;12.20;99.90;;;;;;5064405;28;20032;-72
2021/04/29 10:08:13;;;;;;;14.65;11.65;;;12.10;99.90;;;;;;5052480;28;20510;-71
2021/04/29 10:10:44;;;;;;;15.88;12.45;;;12.20;99.90;;;;;;5070668;28;20039;-72
2021/04/29 10:13:11;;;;;;;16.08;13.63;;;12.20;99.90;;;;;;5059004;28;20021;-72
2021/04/29 10:15:38;;;;;;;17.70;13.10;;;12.30;99.90;;;;;;5063316;28;20021;-71
2021/04/29 10:18:07;;;;;;;19.13;14.05;;;12.10;99.90;;;;;;5064835;28;20047;-73
2021/04/29 10:20:35;;;;;;;16.98;13.68;;;12.00;99.90;;;;;;5062461;28;20036;-72
2021/04/29 10:23:01;;;;;;;18.65;14.38;;;12.00;99.90;;;;;;5060319;28;20378;-71
2021/04/29 10:25:32;;;;;;;19.15;13.70;;;11.90;99.90;;;;;;5064849;28;20024;-71
2021/04/29 10:27:59;;;;;;;17.08;13.38;;;11.80;99.90;;;;;;5069315;28;20017;-73
2021/04/29 10:30:38;;;;;;;20.92;12.95;;;11.70;99.90;;;;;;5064870;28;20385;-72
2021/04/29 10:33:15;;;;;;;19.92;14.45;;;11.70;99.90;;;;;;5061321;28;20060;-72
2021/04/29 10:35:53;;;;;;;20.67;13.88;;;11.60;99.90;;;;;;5062039;28;20038;-70
2021/04/29 10:38:24;;;;;;;19.45;15.95;;;11.60;99.90;;;;;;5064216;28;20036;-71
2021/04/29 10:40:50;;;;;;;18.27;13.80;;;11.50;99.90;;;;;;5070034;28;20072;-71
2021/04/29 10:43:29;;;;;;;20.30;15.10;;;11.40;99.90;;;;;;5065635;28;20109;-70
2021/04/29 10:45:54;;;;;;;20.38;15.32;;;11.40;99.90;;;;;;5060973;28;20029;-70
2021/04/29 10:48:20;;;;;;;21.23;16.05;;;11.40;99.90;;;;;;5062150;28;20017;-69
2021/04/29 10:50:47;;;;;;;19.02;14.77;;;11.30;99.90;;;;;;5065415;28;20036;-71
2021/04/29 10:53:26;;;;;;;19.98;14.80;;;11.20;99.90;;;;;;5061585;28;20073;-70
2021/04/29 10:56:10;;;;;;;23.88;16.20;;;11.30;99.90;;;;;;5058882;28;20024;-71
2021/04/29 10:58:36;;;;;;;22.40;16.55;;;11.30;99.90;;;;;;5057877;28;20128;-70
2021/04/29 11:01:10;;;;;;;21.52;17.25;;;11.30;99.90;;;;;;5064801;28;20115;-70
2021/04/29 11:03:38;;;;;;;19.80;15.13;;;11.10;99.90;;;;;;5071303;28;20112;-71
2021/04/29 11:06:09;;;;;;;17.58;12.57;;;11.10;99.90;;;;;;5066819;28;20036;-71
2021/04/29 11:08:40;;;;;;;17.80;12.48;;;11.00;99.90;;;;;;5056880;28;20017;-70
2021/04/29 11:11:27;;;;;;;16.70;12.73;;;11.00;99.90;;;;;;5066993;28;20064;-70
2021/04/29 11:14:00;;;;;;;17.35;12.50;;;11.10;99.90;;;;;;5066029;28;20377;-70
2021/04/29 11:16:26;;;;;;;14.05;11.02;;;11.20;99.90;;;;;;5068779;28;20029;-71
2021/04/29 11:18:52;;;;;;;15.45;10.93;;;11.00;99.90;;;;;;5062621;28;20078;-71
2021/04/29 11:21:26;;;;;;;14.52;10.48;;;10.90;99.90;;;;;;5061465;28;20033;-72
2021/04/29 11:23:52;;;;;;;14.13;11.32;;;11.00;99.90;;;;;;5071729;28;20043;-73
2021/04/29 11:26:20;;;;;;;13.02;10.60;;;11.00;99.90;;;;;;5064631;28;20694;-70
2021/04/29 11:28:48;;;;;;;12.00;9.82;;;10.80;99.90;;;;;;5061873;28;20032;-72
2021/04/29 11:31:14;;;;;;;13.05;9.73;;;10.80;99.90;;;;;;5071245;28;20017;-71
2021/04/29 11:33:47;;;;;;;15.05;9.52;;;10.70;99.90;;;;;;5067304;28;20029;-70
2021/04/29 11:36:29;;;;;;;13.32;11.15;;;10.60;99.90;;;;;;5063066;28;20476;-70
2021/04/29 11:38:57;;;;;;;17.13;11.27;;;10.60;99.90;;;;;;5055811;28;20548;-73
2021/04/29 11:41:24;;;;;;;15.88;10.15;;;10.70;99.90;;;;;;5062569;28;20037;-70
2021/04/29 11:44:03;;;;;;;13.07;8.85;;;10.70;99.90;;;;;;5068294;28;20023;-73
2021/04/29 11:46:30;;;;;;;14.35;9.48;;;10.60;99.90;;;;;;5062939;28;20516;-72
2021/04/29 11:48:57;;;;;;;11.10;8.15;;;10.70;99.90;;;;;;5066137;28;20107;-72
2021/04/29 11:51:24;;;;;;;12.20;8.65;;;10.80;99.90;;;;;;5069037;28;20525;-73
2021/04/29 11:53:50;;;;;;;10.80;7.80;;;10.80;99.90;;;;;;5062632;28;20495;-75
2021/04/29 11:56:15;;;;;;;9.35;7.55;;;10.70;99.90;;;;;;5070564;28;20020;-74
2021/04/29 11:58:41;;;;;;;9.88;7.82;;;10.70;99.90;;;;;;5070989;28;20133;-75
2021/04/29 12:01:16;;;;;;;8.93;7.65;;;10.70;99.90;;;;;;5053376;28;20480;-71
2021/04/29 12:03:43;;;;;;;10.00;7.32;;;10.70;99.90;;;;;;5054564;28;20107;-70
2021/04/29 12:06:09;;;;;;;7.85;6.93;;;10.70;99.90;;;;;;5058403;28;20150;-71
2021/04/29 12:08:35;;;;;;;9.18;8.18;;;10.70;99.90;;;;;;5063611;28;20632;-70
2021/04/29 12:11:10;;;;;;;13.02;7.53;;;10.70;99.90;;;;;;5045123;28;20033;-71
2021/04/29 12:13:53;;;;;;;11.57;8.40;;;10.80;99.90;;;;;;5064647;28;20025;-72
2021/04/29 12:16:23;;;;;;;10.70;8.43;;;10.70;99.90;;;;;;5067499;28;20141;-73
2021/04/29 12:18:52;;;;;;;12.52;8.05;;;10.80;99.90;;;;;;5059905;28;20032;-72
2021/04/29 12:21:20;;;;;;;9.93;8.10;;;10.90;99.90;;;;;;5065208;28;20033;-71
2021/04/29 12:23:59;;;;;;;11.82;7.82;;;10.90;99.90;;;;;;5067388;28;20103;-74
2021/04/29 12:26:50;;;;;;;9.40;8.40;;;10.80;99.90;;;;;;5061298;28;20048;-74
2021/04/29 12:29:22;;;;;;;10.50;8.10;;;10.70;99.90;;;;;;5068417;28;20445;-71
2021/04/29 12:31:56;;;;;;;11.07;8.55;;;10.70;99.90;;;;;;5069837;28;20107;-73